createdAt,value
2022-08-14T00:02:02.941Z,54.66
2022-08-14T00:04:42.469Z,54.80
2022-08-14T00:07:14.035Z,54.74
2022-08-14T00:09:55.714Z,54.63
2022-08-14T00:12:33.630Z,54.82
2022-08-14T00:15:09.251Z,54.73
2022-08-14T00:17:38.140Z,54.70
2022-08-14T00:20:15.196Z,54.63
2022-08-14T00:22:57.596Z,54.70
2022-08-14T00:25:41.662Z,54.65
2022-08-14T00:28:15.552Z,54.71
2022-08-14T00:30:46.888Z,54.64
2022-08-14T00:33:15.404Z,54.84
2022-08-14T00:36:36.866Z,54.96
2022-08-14T00:38:29.787Z,54.59
2022-08-14T00:40:58.546Z,54.82
2022-08-14T00:43:25.003Z,54.65
2022-08-14T00:46:02.363Z,54.85
2022-08-14T00:48:34.676Z,55.12
2022-08-14T00:51:10.482Z,54.83
2022-08-14T00:53:38.560Z,54.80
2022-08-14T00:56:07.119Z,54.59
2022-08-14T00:58:36.225Z,54.93
2022-08-14T01:01:11.699Z,54.68
2022-08-14T01:03:42.327Z,54.71
2022-08-14T01:06:11.162Z,55.03
2022-08-14T01:08:58.275Z,54.47
2022-08-14T01:11:35.607Z,54.59
2022-08-14T01:14:04.807Z,54.54
2022-08-14T01:16:53.167Z,54.69
2022-08-14T01:19:41.436Z,54.33
2022-08-14T01:22:08.735Z,54.57
2022-08-14T01:24:41.254Z,54.59
2022-08-14T01:27:07.614Z,54.70
2022-08-14T01:29:58.538Z,54.49
2022-08-14T01:32:24.309Z,54.62
2022-08-14T01:35:21.072Z,54.61
2022-08-14T01:37:54.664Z,54.36
2022-08-14T01:40:33.270Z,54.35
2022-08-14T01:43:18.856Z,54.34
2022-08-14T01:45:57.676Z,54.36
2022-08-14T01:48:37.154Z,54.38
2022-08-14T01:51:18.764Z,54.10
2022-08-14T01:53:54.815Z,54.42
2022-08-14T01:56:30.699Z,54.09
2022-08-14T01:59:10.131Z,54.29
2022-08-14T02:01:57.986Z,54.31
2022-08-14T02:04:55.223Z,54.47
2022-08-14T02:07:17.397Z,54.36
2022-08-14T02:10:02.673Z,54.29
2022-08-14T02:12:32.912Z,54.59
2022-08-14T02:15:01.597Z,54.30
2022-08-14T02:17:30.891Z,54.44
2022-08-14T02:19:58.686Z,54.52
2022-08-14T02:22:37.498Z,54.54
2022-08-14T02:25:12.476Z,54.35
2022-08-14T02:28:24.615Z,54.46
2022-08-14T02:30:29.670Z,54.26
2022-08-14T02:32:57.887Z,54.04
2022-08-14T02:35:32.570Z,53.91
2022-08-14T02:37:59.908Z,54.05
2022-08-14T02:40:32.425Z,53.93
2022-08-14T02:43:00.843Z,54.14
2022-08-14T02:45:38.641Z,54.02
2022-08-14T02:49:02.562Z,53.84
2022-08-14T02:51:00.734Z,54.01
2022-08-14T02:53:29.335Z,53.83
2022-08-14T02:55:56.502Z,53.75
2022-08-14T02:58:31.133Z,53.71
2022-08-14T03:00:58.990Z,53.95
2022-08-14T03:03:26.031Z,53.62
2022-08-14T03:05:54.252Z,53.80
2022-08-14T03:08:22.060Z,53.87
2022-08-14T03:10:50.263Z,53.79
2022-08-14T03:13:20.855Z,53.67
2022-08-14T03:15:55.263Z,53.84
2022-08-14T03:18:30.728Z,53.76
2022-08-14T03:21:07.695Z,53.62
2022-08-14T03:23:36.369Z,53.70
2022-08-14T03:26:07.071Z,53.80
2022-08-14T03:28:34.284Z,53.80
2022-08-14T03:31:03.787Z,53.53
2022-08-14T03:33:37.983Z,53.81
2022-08-14T03:37:50.921Z,53.63
2022-08-14T03:39:14.408Z,53.62
2022-08-14T03:41:48.004Z,53.53
2022-08-14T03:47:03.179Z,53.76
2022-08-14T03:49:30.206Z,53.48
2022-08-14T03:52:00.565Z,53.52
2022-08-14T03:54:27.470Z,53.76
2022-08-14T03:56:54.493Z,53.55
2022-08-14T03:59:20.959Z,53.54
2022-08-14T04:02:01.220Z,53.76
2022-08-14T04:04:33.431Z,53.65
2022-08-14T04:07:00.688Z,53.84
2022-08-14T04:09:27.805Z,53.82
2022-08-14T04:11:56.244Z,53.82
2022-08-14T04:14:24.591Z,53.65
2022-08-14T04:16:50.933Z,53.67
2022-08-14T04:19:19.242Z,53.60
2022-08-14T04:22:03.700Z,53.51
2022-08-14T04:24:31.831Z,53.55
2022-08-14T04:27:10.462Z,53.66
2022-08-14T04:29:42.520Z,53.50
2022-08-14T04:33:00.015Z,53.50
2022-08-14T04:34:58.989Z,53.37
2022-08-14T04:37:45.302Z,53.77
2022-08-14T04:40:31.185Z,53.63
2022-08-14T04:43:17.295Z,53.50
2022-08-14T04:45:44.971Z,53.39
2022-08-14T04:48:13.998Z,53.30
2022-08-14T04:51:01.458Z,53.70
2022-08-14T04:53:34.673Z,53.39
2022-08-14T04:56:05.831Z,53.67
2022-08-14T04:58:34.328Z,53.57
2022-08-14T05:01:04.050Z,53.60
2022-08-14T05:03:31.980Z,53.47
2022-08-14T05:06:00.515Z,53.42
2022-08-14T05:08:50.543Z,53.42
2022-08-14T05:11:15.064Z,53.69
2022-08-14T05:16:31.557Z,53.70
2022-08-14T05:19:18.400Z,53.57
2022-08-14T05:21:59.880Z,53.56
2022-08-14T05:24:28.801Z,53.45
2022-08-14T05:26:55.780Z,53.54
2022-08-14T05:29:23.072Z,53.66
2022-08-14T05:31:49.547Z,53.52
2022-08-14T05:34:23.640Z,53.66
2022-08-14T05:36:58.857Z,53.71
2022-08-14T05:39:29.748Z,53.97
2022-08-14T05:41:56.699Z,54.04
2022-08-14T05:44:27.863Z,54.52
2022-08-14T05:46:56.748Z,55.18
2022-08-14T05:49:23.161Z,55.14
2022-08-14T05:51:59.486Z,55.37
2022-08-14T05:54:28.066Z,55.65
2022-08-14T05:57:02.531Z,55.92
2022-08-14T05:59:36.770Z,55.76
2022-08-14T06:02:07.522Z,56.03
2022-08-14T06:04:36.733Z,56.18
2022-08-14T06:07:03.251Z,56.63
2022-08-14T06:09:35.520Z,56.60
2022-08-14T06:12:10.548Z,57.16
2022-08-14T06:14:38.716Z,57.31
2022-08-14T06:17:05.523Z,57.09
2022-08-14T06:19:31.876Z,57.65
2022-08-14T06:21:59.462Z,57.68
2022-08-14T06:24:27.472Z,57.52
2022-08-14T06:27:04.382Z,57.80
2022-08-14T06:29:34.671Z,57.90
2022-08-14T06:32:38.333Z,57.58
2022-08-14T06:35:03.523Z,57.35
2022-08-14T06:37:48.835Z,57.55
2022-08-14T06:40:27.600Z,57.79
2022-08-14T06:43:07.205Z,57.92
2022-08-14T06:45:36.045Z,58.08
2022-08-14T06:48:06.287Z,57.73
2022-08-14T06:50:39.599Z,57.64
2022-08-14T06:53:06.332Z,57.73
2022-08-14T06:55:32.723Z,57.59
2022-08-14T06:57:59.091Z,57.96
2022-08-14T07:00:30.809Z,57.70
2022-08-14T07:03:17.049Z,57.95
2022-08-14T07:05:54.982Z,58.15
2022-08-14T07:08:29.713Z,57.96
2022-08-14T07:11:00.018Z,58.30
2022-08-14T07:13:27.526Z,58.27
2022-08-14T07:15:55.712Z,58.22
2022-08-14T07:18:32.809Z,58.29
2022-08-14T07:21:00.932Z,58.18
2022-08-14T07:23:27.675Z,58.27
2022-08-14T07:25:59.366Z,58.45
2022-08-14T07:28:34.763Z,58.39
2022-08-14T07:31:05.753Z,57.87
2022-08-14T07:33:37.683Z,58.14
2022-08-14T07:36:27.415Z,58.20
2022-08-14T07:38:57.104Z,57.67
2022-08-14T07:41:23.487Z,57.98
2022-08-14T07:43:55.811Z,58.00
2022-08-14T07:46:29.248Z,57.69
2022-08-14T07:48:56.776Z,58.00
2022-08-14T07:51:23.314Z,58.02
2022-08-14T07:53:50.244Z,57.79
2022-08-14T07:56:47.695Z,58.01
2022-08-14T07:59:10.546Z,58.28
2022-08-14T08:01:48.483Z,58.30
2022-08-14T08:04:25.029Z,58.26
2022-08-14T08:06:53.987Z,58.76
2022-08-14T08:09:25.099Z,58.09
2022-08-14T08:12:00.451Z,58.81
2022-08-14T08:14:28.426Z,58.78
2022-08-14T08:16:56.316Z,58.73
2022-08-14T08:19:23.291Z,58.73
2022-08-14T08:21:50.767Z,58.90
2022-08-14T08:24:20.921Z,58.58
2022-08-14T08:26:50.692Z,58.92
2022-08-14T08:29:28.649Z,58.59
2022-08-14T08:31:56.562Z,58.62
2022-08-14T08:34:29.389Z,58.91
2022-08-14T08:36:58.050Z,58.94
2022-08-14T08:39:24.444Z,58.63
2022-08-14T08:41:57.203Z,58.81
2022-08-14T08:44:32.793Z,58.76
2022-08-14T08:47:05.245Z,58.79
2022-08-14T08:49:48.464Z,58.37
2022-08-14T08:52:31.021Z,58.66
2022-08-14T08:54:59.074Z,58.46
2022-08-14T08:57:27.303Z,58.74
2022-08-14T08:59:55.291Z,59.00
2022-08-14T09:02:26.067Z,58.83
2022-08-14T09:05:03.613Z,58.83
2022-08-14T09:07:30.563Z,58.84
2022-08-14T09:09:59.770Z,58.69
2022-08-14T09:12:32.430Z,58.96
2022-08-14T09:15:08.982Z,59.02
2022-08-14T09:17:43.040Z,58.99
2022-08-14T09:20:12.341Z,58.95
2022-08-14T09:22:48.215Z,59.26
2022-08-14T09:25:16.373Z,59.19
2022-08-14T09:27:42.846Z,59.27
2022-08-14T09:30:31.577Z,59.53
2022-08-14T09:33:07.413Z,59.15
2022-08-14T09:36:10.572Z,59.25
2022-08-14T09:39:01.854Z,59.25
2022-08-14T09:42:21.537Z,59.55
2022-08-14T09:45:08.457Z,59.55
2022-08-14T09:47:45.577Z,59.49
2022-08-14T09:50:33.667Z,59.36
2022-08-14T09:53:06.426Z,59.63
2022-08-14T09:55:45.476Z,59.45
2022-08-14T09:58:19.854Z,59.51
2022-08-14T10:00:53.920Z,59.55
2022-08-14T10:03:34.028Z,59.26
2022-08-14T10:06:09.768Z,58.97
2022-08-14T10:09:03.281Z,59.42
2022-08-14T10:11:35.937Z,59.27
2022-08-14T10:14:21.078Z,59.50
2022-08-14T10:16:57.928Z,59.25
2022-08-14T10:19:29.057Z,59.45
2022-08-14T10:23:14.988Z,59.34
2022-08-14T10:24:54.798Z,59.29
2022-08-14T10:27:26.546Z,59.54
2022-08-14T10:30:00.603Z,59.71
2022-08-14T10:32:36.732Z,59.57
2022-08-14T10:35:13.519Z,59.59
2022-08-14T10:37:50.514Z,59.68
2022-08-14T10:40:37.605Z,59.84
2022-08-14T10:43:23.355Z,59.40
2022-08-14T10:45:59.735Z,59.45
2022-08-14T10:49:02.673Z,59.46
2022-08-14T10:51:33.924Z,59.34
2022-08-14T10:54:35.509Z,59.27
2022-08-14T10:57:12.332Z,59.14
2022-08-14T10:59:43.478Z,59.28
2022-08-14T11:02:45.103Z,59.25
2022-08-14T11:05:18.302Z,59.34
2022-08-14T11:08:09.032Z,58.90
2022-08-14T11:10:47.627Z,59.28
2022-08-14T11:13:21.191Z,59.42
2022-08-14T11:15:51.105Z,59.13
2022-08-14T11:18:20.522Z,59.12
2022-08-14T11:21:00.192Z,58.98
2022-08-14T11:23:38.407Z,58.80
2022-08-14T11:26:07.982Z,59.00
2022-08-14T11:28:47.032Z,59.03
2022-08-14T11:31:18.507Z,58.84
2022-08-14T11:33:48.800Z,58.99
2022-08-14T11:36:17.959Z,58.99
2022-08-14T11:38:46.527Z,59.08
2022-08-14T11:41:14.441Z,58.93
2022-08-14T11:43:57.914Z,59.09
2022-08-14T11:46:30.865Z,59.05
2022-08-14T11:49:06.196Z,58.94
2022-08-14T11:51:50.916Z,59.01
2022-08-14T11:54:35.041Z,59.14
2022-08-14T11:57:02.276Z,59.09
2022-08-14T11:59:33.174Z,59.20
2022-08-14T12:03:00.730Z,59.04
2022-08-14T12:05:00.318Z,59.15
2022-08-14T12:07:27.072Z,59.04
2022-08-14T12:09:57.625Z,59.06
2022-08-14T12:12:35.746Z,59.11
2022-08-14T12:15:12.744Z,58.89
2022-08-14T12:17:50.468Z,59.03
2022-08-14T12:20:30.012Z,58.59
2022-08-14T12:23:00.570Z,59.15
2022-08-14T12:25:27.398Z,58.70
2022-08-14T12:27:59.316Z,58.75
2022-08-14T12:30:43.696Z,58.96
2022-08-14T12:33:31.068Z,58.68
2022-08-14T12:36:05.772Z,58.72
2022-08-14T12:38:38.560Z,58.60
2022-08-14T12:41:11.494Z,58.65
2022-08-14T12:43:51.512Z,58.59
2022-08-14T12:46:35.895Z,58.41
2022-08-14T12:49:09.651Z,58.32
2022-08-14T12:51:37.457Z,58.65
2022-08-14T12:54:27.778Z,58.55
2022-08-14T12:57:17.053Z,58.73
2022-08-14T12:59:45.545Z,58.29
2022-08-14T13:02:26.157Z,58.04
2022-08-14T13:04:57.722Z,58.48
2022-08-14T13:07:27.126Z,58.59
2022-08-14T13:09:59.398Z,58.81
2022-08-14T13:12:33.158Z,58.83
2022-08-14T13:15:09.286Z,58.75
2022-08-14T13:17:42.642Z,58.53
2022-08-14T13:20:24.195Z,58.78
2022-08-14T13:22:52.536Z,58.47
2022-08-14T13:25:27.613Z,58.96
2022-08-14T13:27:57.594Z,58.76
2022-08-14T13:30:26.333Z,58.64
2022-08-14T13:32:54.775Z,58.97
2022-08-14T13:35:25.302Z,58.87
2022-08-14T13:37:53.517Z,59.03
2022-08-14T13:40:26.575Z,59.04
2022-08-14T13:42:53.744Z,58.99
2022-08-14T13:45:22.071Z,58.57
2022-08-14T13:47:50.021Z,58.42
2022-08-14T13:50:21.079Z,58.67
2022-08-14T13:52:56.458Z,58.60
2022-08-14T13:55:25.894Z,58.33
2022-08-14T13:58:05.008Z,58.41
2022-08-14T14:00:35.595Z,58.47
2022-08-14T14:03:05.529Z,58.39
2022-08-14T14:05:52.725Z,58.42
2022-08-14T14:08:42.915Z,58.39
2022-08-14T14:11:09.583Z,58.57
2022-08-14T14:13:37.083Z,58.52
2022-08-14T14:16:09.411Z,58.50
2022-08-14T14:18:42.341Z,58.78
2022-08-14T14:21:09.242Z,58.45
2022-08-14T14:23:36.060Z,58.75
2022-08-14T14:26:03.380Z,58.75
2022-08-14T14:28:32.135Z,58.46
2022-08-14T14:31:05.984Z,58.52
2022-08-14T14:33:47.806Z,58.58
2022-08-14T14:36:20.886Z,58.73
2022-08-14T14:38:52.607Z,58.74
2022-08-14T14:41:22.313Z,58.57
2022-08-14T14:43:51.654Z,58.71
2022-08-14T14:46:19.885Z,58.68
2022-08-14T14:48:53.978Z,58.49
2022-08-14T14:51:21.967Z,58.37
2022-08-14T14:53:48.531Z,58.70
2022-08-14T14:56:49.986Z,58.38
2022-08-14T14:59:01.907Z,58.24
2022-08-14T15:01:28.693Z,58.47
2022-08-14T15:03:55.356Z,58.16
2022-08-14T15:06:30.407Z,58.37
2022-08-14T15:09:01.746Z,58.42
2022-08-14T15:11:32.168Z,58.33
2022-08-14T15:14:00.105Z,58.51
2022-08-14T15:16:27.868Z,58.22
2022-08-14T15:18:54.369Z,58.08
2022-08-14T15:21:20.799Z,58.23
2022-08-14T15:23:48.024Z,58.03
2022-08-14T15:26:24.544Z,58.11
2022-08-14T15:29:02.776Z,58.27
2022-08-14T15:31:31.212Z,58.14
2022-08-14T15:34:43.445Z,58.12
2022-08-14T15:36:59.709Z,58.25
2022-08-14T15:39:29.544Z,57.97
2022-08-14T15:42:03.330Z,57.86
2022-08-14T15:44:34.302Z,57.92
2022-08-14T15:47:06.711Z,57.84
2022-08-14T15:49:34.784Z,57.89
2022-08-14T15:52:03.246Z,58.08
2022-08-14T15:54:31.416Z,57.90
2022-08-14T15:57:00.985Z,58.59
2022-08-14T15:59:48.236Z,58.36
2022-08-14T16:02:16.258Z,58.91
2022-08-14T16:04:45.775Z,58.96
2022-08-14T16:07:17.875Z,59.62
2022-08-14T16:09:48.334Z,59.75
2022-08-14T16:12:19.659Z,59.09
2022-08-14T16:15:06.406Z,60.15
2022-08-14T16:17:44.055Z,59.70
2022-08-14T16:20:11.644Z,60.36
2022-08-14T16:22:59.409Z,61.15
2022-08-14T16:25:34.347Z,61.24
2022-08-14T16:28:03.560Z,60.66
2022-08-14T16:30:34.238Z,60.43
2022-08-14T16:33:04.591Z,61.56
2022-08-14T16:35:43.476Z,62.05
2022-08-14T16:38:45.620Z,60.32
2022-08-14T16:41:29.468Z,62.99
2022-08-14T16:44:04.630Z,63.18
2022-08-14T16:46:40.058Z,63.06
2022-08-14T16:49:13.267Z,61.11
2022-08-14T16:51:41.239Z,62.51
2022-08-14T16:54:20.929Z,62.80
2022-08-14T16:57:13.346Z,62.86
2022-08-14T16:59:52.739Z,62.94
2022-08-14T17:02:39.662Z,62.71
2022-08-14T17:05:20.931Z,62.81
2022-08-14T17:08:28.475Z,62.98
2022-08-14T17:10:52.165Z,63.41
2022-08-14T17:13:47.423Z,63.06
2022-08-14T17:16:25.297Z,62.90
2022-08-14T17:18:55.457Z,62.98
2022-08-14T17:21:38.076Z,63.11
2022-08-14T17:24:56.449Z,63.45
2022-08-14T17:27:04.071Z,62.81
2022-08-14T17:29:34.760Z,62.55
2022-08-14T17:32:21.918Z,62.65
2022-08-14T17:34:55.273Z,62.57
2022-08-14T17:37:35.467Z,62.33
2022-08-14T17:40:19.237Z,62.48
2022-08-14T17:42:46.214Z,62.52
2022-08-14T17:45:28.630Z,62.34
2022-08-14T17:48:09.916Z,62.41
2022-08-14T17:51:01.254Z,62.51
2022-08-14T17:53:30.459Z,62.45
2022-08-14T17:56:01.039Z,62.41
2022-08-14T17:58:30.960Z,62.63
2022-08-14T18:01:12.916Z,62.50
2022-08-14T18:03:44.917Z,62.16
2022-08-14T18:06:39.767Z,62.22
2022-08-14T18:09:25.064Z,62.02
2022-08-14T18:11:55.088Z,62.34
2022-08-14T18:14:32.763Z,61.97
2022-08-14T18:17:10.605Z,61.46
2022-08-14T18:19:41.447Z,61.78
2022-08-14T18:22:24.064Z,61.77
2022-08-14T18:24:56.301Z,60.84
2022-08-14T18:27:28.301Z,60.74
2022-08-14T18:29:57.913Z,61.14
2022-08-14T18:32:27.092Z,61.35
2022-08-14T18:35:03.624Z,61.18
2022-08-14T18:37:39.356Z,60.97
2022-08-14T18:40:18.127Z,60.95
2022-08-14T18:42:51.004Z,60.98
2022-08-14T18:45:42.893Z,60.88
2022-08-14T18:48:28.683Z,60.94
2022-08-14T18:51:12.479Z,61.27
2022-08-14T18:53:57.037Z,60.88
2022-08-14T18:56:56.882Z,60.92
2022-08-14T18:59:35.776Z,61.08
2022-08-14T19:02:30.548Z,60.88
2022-08-14T19:04:59.722Z,60.86
2022-08-14T19:07:33.441Z,61.10
2022-08-14T19:10:07.268Z,60.95
2022-08-14T19:12:52.387Z,60.62
2022-08-14T19:15:29.928Z,60.94
2022-08-14T19:18:10.689Z,60.94
2022-08-14T19:21:00.009Z,61.02
2022-08-14T19:23:43.928Z,60.89
2022-08-14T19:26:35.905Z,60.75
2022-08-14T19:29:25.559Z,60.97
2022-08-14T19:32:00.072Z,60.64
2022-08-14T19:34:52.351Z,60.64
2022-08-14T19:37:52.462Z,61.07
2022-08-14T19:40:33.402Z,60.83
2022-08-14T19:43:00.755Z,60.85
2022-08-14T19:45:27.822Z,61.10
2022-08-14T19:47:54.278Z,61.11
2022-08-14T19:50:38.134Z,60.91
2022-08-14T19:53:12.020Z,60.92
2022-08-14T19:55:54.256Z,60.77
2022-08-14T19:58:28.081Z,61.28
2022-08-14T20:01:01.104Z,61.13
2022-08-14T20:03:58.977Z,60.92
2022-08-14T20:06:35.519Z,61.18
2022-08-14T20:11:04.939Z,60.94
2022-08-14T20:12:02.798Z,61.08
2022-08-14T20:14:36.013Z,61.14
2022-08-14T20:17:06.687Z,61.14
2022-08-14T20:19:37.556Z,60.98
2022-08-14T20:22:37.018Z,61.24
2022-08-14T20:24:55.272Z,61.02
2022-08-14T20:27:33.523Z,61.02
2022-08-14T20:30:33.195Z,60.91
2022-08-14T20:33:02.348Z,60.86
2022-08-14T20:35:35.083Z,61.05
2022-08-14T20:38:29.181Z,60.84
2022-08-14T20:41:05.868Z,61.02
2022-08-14T20:43:55.936Z,60.95
2022-08-14T20:46:29.777Z,60.83
2022-08-14T20:49:01.616Z,61.11
2022-08-14T20:51:43.653Z,60.95
2022-08-14T20:54:34.592Z,61.12
2022-08-14T20:57:06.874Z,61.39
2022-08-14T20:59:39.900Z,61.03
2022-08-14T21:02:34.599Z,61.33
2022-08-14T21:05:16.417Z,60.98
2022-08-14T21:07:50.380Z,61.11
2022-08-14T21:10:35.260Z,61.08
2022-08-14T21:13:13.963Z,61.27
2022-08-14T21:15:56.771Z,61.13
2022-08-14T21:18:24.936Z,61.08
2022-08-14T21:20:56.403Z,60.73
2022-08-14T21:23:23.125Z,60.95
2022-08-14T21:25:49.573Z,60.89
2022-08-14T21:28:27.678Z,60.77
2022-08-14T21:30:57.815Z,61.07
2022-08-14T21:33:25.328Z,60.88
2022-08-14T21:35:57.131Z,60.93
2022-08-14T21:38:34.310Z,60.78
2022-08-14T21:41:42.935Z,60.81
2022-08-14T21:44:18.360Z,60.85
2022-08-14T21:46:54.160Z,60.88
2022-08-14T21:49:34.098Z,60.82
2022-08-14T21:52:50.281Z,60.94
2022-08-14T21:54:59.451Z,60.94
2022-08-14T21:58:45.825Z,61.00
2022-08-14T22:00:34.698Z,60.92
2022-08-14T22:03:04.223Z,61.11
2022-08-14T22:05:30.946Z,61.03
2022-08-14T22:07:57.803Z,61.10
2022-08-14T22:10:24.463Z,61.14
2022-08-14T22:13:00.033Z,60.94
2022-08-14T22:15:28.483Z,61.33
2022-08-14T22:17:55.303Z,61.28
2022-08-14T22:20:25.490Z,61.39
2022-08-14T22:22:56.198Z,61.19
2022-08-14T22:25:23.251Z,61.67
2022-08-14T22:28:01.365Z,61.65
2022-08-14T22:30:27.853Z,61.57
2022-08-14T22:32:57.546Z,61.61
2022-08-14T22:35:24.962Z,61.79
2022-08-14T22:38:35.079Z,61.78
2022-08-14T22:41:02.390Z,61.68
2022-08-14T22:43:31.179Z,61.62
2022-08-14T22:45:58.156Z,61.32
2022-08-14T22:48:29.667Z,61.76
2022-08-14T22:50:56.165Z,61.46
2022-08-14T22:53:23.682Z,61.33
2022-08-14T22:55:52.129Z,61.37
2022-08-14T22:58:31.753Z,61.29
2022-08-14T23:01:02.301Z,61.49
2022-08-14T23:03:34.069Z,61.71
2022-08-14T23:06:01.660Z,61.61
2022-08-14T23:08:58.527Z,61.76
2022-08-14T23:11:15.072Z,61.66
2022-08-14T23:13:43.732Z,61.46
2022-08-14T23:16:19.576Z,61.58
2022-08-14T23:18:46.424Z,61.59
2022-08-14T23:21:15.520Z,61.49
2022-08-14T23:23:43.614Z,61.42
2022-08-14T23:26:46.981Z,61.50
2022-08-14T23:28:58.674Z,61.52
2022-08-14T23:31:34.676Z,61.39
2022-08-14T23:34:07.491Z,61.48
2022-08-14T23:36:38.006Z,61.39
2022-08-14T23:39:19.541Z,61.31
2022-08-14T23:41:52.673Z,61.13
2022-08-14T23:44:22.818Z,61.43
2022-08-14T23:46:52.589Z,60.98
2022-08-14T23:49:22.894Z,60.93
2022-08-14T23:52:49.329Z,61.19
2022-08-14T23:54:48.408Z,61.12
2022-08-14T23:57:19.114Z,61.30
2022-08-14T23:59:54.666Z,61.26
